Time;durP1;ratioP1;P1;durP2;ratioP2;P2;SDS_P1;SDS_P2;PMS_P1;PMS_P2;Temp;Humidity;BMP_temperature;BMP_pressure;BME280_temperature;BME280_humidity;BME280_pressure;Samples;Min_cycle;Max_cycle;Signal;HPM_P1;HPM_P2
2022/03/25 00:00:51;;;;;;;;;65.50;50.25;;;;;16.05;30.47;101927.28;6225327;22;45645;-84
2022/03/25 00:03:17;;;;;;;;;55.50;43.50;;;;;15.82;30.61;101898.44;6221032;22;47014;-84
2022/03/25 00:05:44;;;;;;;;;63.50;49.00;;;;;15.92;30.66;101908.38;6225627;22;45409;-84
2022/03/25 00:08:09;;;;;;;;;65.25;51.25;;;;;15.70;30.83;101883.06;6226056;22;45450;-83
2022/03/25 00:10:35;;;;;;;;;65.25;50.25;;;;;15.86;30.83;101918.16;6225585;22;45869;-83
2022/03/25 00:13:00;;;;;;;;;66.75;51.25;;;;;15.64;30.94;101891.03;6197005;22;45414;-84
2022/03/25 00:15:29;;;;;;;;;58.50;47.75;;;;;15.88;30.91;101935.16;6197966;22;45692;-83
2022/03/25 00:18:44;;;;;;;;;60.75;46.75;;;;;16.02;30.64;101935.28;6197542;22;45325;-84
2022/03/25 00:21:12;;;;;;;;;59.50;48.00;;;;;15.53;30.78;101880.19;6219863;22;45299;-82
2022/03/25 00:23:39;;;;;;;;;64.50;50.25;;;;;15.73;31.10;101931.38;6221294;22;45569;-82
2022/03/25 00:26:05;;;;;;;;;63.75;51.50;;;;;15.77;30.95;101927.91;6220138;22;45419;-83
2022/03/25 00:28:30;;;;;;;;;63.50;49.00;;;;;15.73;30.74;101920.66;6195409;22;45450;-83
2022/03/25 00:31:46;;;;;;;;;65.50;49.50;;;;;15.93;30.72;101930.72;6196540;22;44968;-83
2022/03/25 00:34:12;;;;;;;;;63.75;51.00;;;;;15.65;31.02;101916.06;6224131;22;46146;-83
2022/03/25 00:36:38;;;;;;;;;65.75;49.75;;;;;15.64;31.16;101919.66;6222457;22;45662;-82
2022/03/25 00:39:03;;;;;;;;;64.50;49.00;;;;;15.68;31.08;101924.16;6223819;22;45311;-83
2022/03/25 00:41:31;;;;;;;;;61.00;46.25;;;;;15.64;31.20;101928.59;6196885;22;45389;-83
2022/03/25 00:43:57;;;;;;;;;59.25;48.25;;;;;15.58;31.31;101920.47;6197618;22;47508;-84
2022/03/25 00:46:22;;;;;;;;;56.00;47.00;;;;;15.59;31.39;101922.25;6197409;22;45786;-84
2022/03/25 00:48:47;;;;;;;;;58.50;48.00;;;;;15.61;31.13;101928.53;6196638;22;45294;-83
2022/03/25 00:51:13;;;;;;;;;58.50;48.00;;;;;15.60;31.37;101929.44;6225949;22;45403;-84
2022/03/25 00:53:38;;;;;;;;;62.50;49.00;;;;;15.59;31.26;101933.91;6198242;22;46842;-83
2022/03/25 00:56:05;;;;;;;;;42.00;34.00;;;;;15.60;31.38;101924.06;6225090;22;45382;-83
2022/03/25 00:58:30;;;;;;;;;50.75;42.50;;;;;15.56;31.64;101932.94;6227046;22;45759;-83
2022/03/25 01:00:56;;;;;;;;;56.75;45.25;;;;;15.46;31.71;101936.41;6227015;22;45299;-83
2022/03/25 01:03:22;;;;;;;;;57.00;43.25;;;;;15.40;31.56;101927.38;6225278;22;45181;-83
2022/03/25 01:05:49;;;;;;;;;54.75;42.25;;;;;15.29;31.92;101909.34;6199479;22;45467;-83
2022/03/25 01:08:15;;;;;;;;;57.50;43.25;;;;;15.23;31.84;101914.63;6199535;22;45303;-83
2022/03/25 01:10:41;;;;;;;;;58.50;47.50;;;;;15.29;31.77;101926.34;6227724;22;45258;-83
2022/03/25 01:13:07;;;;;;;;;52.50;43.75;;;;;15.27;31.67;101903.06;6227250;22;45991;-83
2022/03/25 01:15:33;;;;;;;;;48.00;39.00;;;;;15.22;32.10;101920.88;6200070;22;45764;-83
2022/03/25 01:17:59;;;;;;;;;57.75;45.50;;;;;14.99;32.30;101895.56;6227734;22;45379;-83
2022/03/25 01:20:24;;;;;;;;;62.00;46.50;;;;;15.10;32.20;101911.78;6225966;22;45417;-83
2022/03/25 01:22:50;;;;;;;;;61.75;47.25;;;;;15.11;31.99;101908.25;6197021;22;46685;-83
2022/03/25 01:25:16;;;;;;;;;56.25;44.00;;;;;15.16;32.24;101903.81;6226309;22;45432;-82
2022/03/25 01:27:42;;;;;;;;;57.75;45.00;;;;;15.11;32.21;101912.72;6199204;22;45271;-83
2022/03/25 01:30:08;;;;;;;;;54.75;44.75;;;;;15.11;32.21;101908.25;6198026;22;45772;-83
2022/03/25 01:32:34;;;;;;;;;59.00;45.75;;;;;14.82;32.49;101862.25;6222221;22;46873;-83
2022/03/25 01:35:00;;;;;;;;;62.00;46.25;;;;;15.08;32.37;101905.50;6196788;22;45301;-83
2022/03/25 01:37:25;;;;;;;;;57.75;44.50;;;;;14.85;32.69;101883.75;6223936;22;45177;-82
2022/03/25 01:39:51;;;;;;;;;56.00;44.25;;;;;14.83;32.36;101864.09;6224838;22;45925;-83
2022/03/25 01:42:28;;;;;;;;;51.75;43.75;;;;;15.07;32.23;101905.47;6197881;22;47502;-83
2022/03/25 01:44:53;;;;;;;;;56.25;46.25;;;;;14.85;32.42;101867.69;6223951;22;45507;-82
2022/03/25 01:47:28;;;;;;;;;46.75;37.00;;;;;14.88;32.27;101845.38;6196638;22;45462;-82
2022/03/25 01:49:56;;;;;;;;;62.00;47.00;;;;;14.90;32.29;101865.94;6196956;22;45341;-82
2022/03/25 01:52:22;;;;;;;;;54.25;43.50;;;;;14.86;32.16;101866.78;6223282;22;45458;-83
2022/03/25 01:54:47;;;;;;;;;58.50;46.75;;;;;14.75;32.18;101860.41;6196046;22;45799;-82
2022/03/25 01:57:13;;;;;;;;;57.75;46.00;;;;;15.02;32.50;101901.84;6196250;22;45416;-84
2022/03/25 01:59:39;;;;;;;;;55.75;46.00;;;;;14.71;33.02;101859.44;6196395;22;45882;-82
2022/03/25 02:02:09;;;;;;;;;53.50;40.50;;;;;15.07;32.83;101900.13;6222813;22;45339;-83
2022/03/25 02:04:35;;;;;;;;;59.50;45.75;;;;;14.96;32.62;101903.53;6195982;22;45423;-84
2022/03/25 02:07:02;;;;;;;;;54.75;43.00;;;;;14.88;32.92;101882.88;6196398;22;45485;-83
2022/03/25 02:09:28;;;;;;;;;59.75;47.00;;;;;14.92;32.92;101892.75;6196393;22;45380;-83
2022/03/25 02:11:55;;;;;;;;;57.50;45.25;;;;;14.89;32.87;101895.41;6196262;22;48231;-83
2022/03/25 02:14:22;;;;;;;;;57.50;45.50;;;;;14.71;32.84;101859.44;6196001;22;45753;-83
2022/03/25 02:16:49;;;;;;;;;56.75;45.50;;;;;14.78;33.09;101881.84;6196653;22;45394;-83
2022/03/25 02:19:25;;;;;;;;;54.25;44.00;;;;;14.59;33.16;101848.56;6195219;22;45465;-84
2022/03/25 02:21:51;;;;;;;;;57.00;46.50;;;;;14.66;32.94;101870.94;6195399;22;47292;-84
2022/03/25 02:24:17;;;;;;;;;55.25;45.25;;;;;14.68;33.32;101870.09;6219400;22;45353;-84
2022/03/25 02:30:06;;;;;;;;;58.25;45.50;;;;;14.76;32.96;101895.19;6222571;22;45506;-83
2022/03/25 02:32:32;;;;;;;;;56.25;46.75;;;;;14.63;33.27;101879.84;6222730;22;45789;-83
2022/03/25 02:35:05;;;;;;;;;56.00;44.00;;;;;14.71;33.40;101869.25;6195960;22;45383;-83
2022/03/25 02:37:31;;;;;;;;;60.75;47.50;;;;;14.46;33.18;101852.78;6198484;22;44811;-83
2022/03/25 02:39:56;;;;;;;;;53.50;43.75;;;;;14.63;33.14;101886.97;6225672;22;45347;-82
2022/03/25 02:42:22;;;;;;;;;61.25;47.50;;;;;14.55;33.22;101862.72;6225051;22;45771;-83
2022/03/25 02:44:48;;;;;;;;;57.50;45.50;;;;;14.61;33.47;101878.91;6197191;22;45579;-83
2022/03/25 02:47:15;;;;;;;;;64.75;51.00;;;;;14.58;33.67;101887.81;6198440;22;45586;-83
2022/03/25 02:49:40;;;;;;;;;61.75;49.25;;;;;14.50;33.96;101884.09;6223356;22;45363;-83
2022/03/25 02:52:06;;;;;;;;;67.00;51.75;;;;;14.56;34.28;101896.66;6195174;22;48122;-83
2022/03/25 02:54:32;;;;;;;;;61.00;48.75;;;;;14.43;34.38;101890.19;6224232;22;45377;-82
2022/03/25 02:56:58;;;;;;;;;53.50;43.50;;;;;14.51;34.66;101901.94;6195503;22;45574;-83
2022/03/25 02:59:25;;;;;;;;;54.75;44.25;;;;;14.25;34.96;101873.84;6196960;22;45518;-83
2022/03/25 03:01:51;;;;;;;;;60.75;44.50;;;;;14.20;34.88;101871.97;6195604;22;46869;-84
2022/03/25 03:04:17;;;;;;;;;53.50;43.75;;;;;14.34;34.74;101896.31;6194736;22;45418;-83
2022/03/25 03:06:43;;;;;;;;;57.25;45.75;;;;;14.13;35.00;101872.72;6200873;22;45667;-83
2022/03/25 03:09:16;;;;;;;;;58.50;46.25;;;;;14.18;34.99;101854.09;6200616;22;45353;-82
2022/03/25 03:11:41;;;;;;;;;51.00;42.75;;;;;13.99;35.06;101861.78;6226893;22;46553;-83
2022/03/25 03:14:06;;;;;;;;;54.50;40.50;;;;;13.97;34.95;101859.97;6226452;22;45394;-83
2022/03/25 03:16:33;;;;;;;;;52.50;42.00;;;;;14.26;35.54;101902.38;6200218;22;45676;-83
2022/03/25 03:18:58;;;;;;;;;55.75;46.50;;;;;13.93;35.28;101872.38;6199609;22;44989;-83
2022/03/25 03:21:24;;;;;;;;;55.50;43.75;;;;;13.88;35.57;101865.16;6226209;22;45254;-83
2022/03/25 03:23:54;;;;;;;;;55.50;42.50;;;;;13.85;35.65;101846.38;6193310;23;45433;-83
2022/03/25 03:26:21;;;;;;;;;54.25;45.00;;;;;14.03;35.79;101896.63;6191065;23;45806;-84
2022/03/25 03:28:47;;;;;;;;;14.75;9.25;;;;;13.97;35.89;101873.34;6191727;23;45323;-84
2022/03/25 03:31:14;;;;;;;;;52.75;44.50;;;;;13.78;35.77;101867.66;6193154;23;45371;-84
2022/03/25 03:33:40;;;;;;;;;60.00;46.25;;;;;13.88;35.85;101874.06;6192849;23;45244;-84
2022/03/25 03:36:05;;;;;;;;;54.25;40.75;;;;;13.91;36.21;101897.28;6191680;23;45406;-84
2022/03/25 03:38:31;;;;;;;;;59.50;43.00;;;;;13.61;36.38;101842.34;6192003;23;45475;-83
2022/03/25 03:40:56;;;;;;;;;53.75;42.00;;;;;13.89;36.46;101905.28;6190804;23;46493;-83
2022/03/25 03:43:22;;;;;;;;;64.50;46.00;;;;;13.79;36.34;101882.84;6192319;23;45686;-83
2022/03/25 03:45:47;;;;;;;;;52.50;42.75;;;;;13.73;36.47;101881.78;6191420;23;45398;-83
2022/03/25 03:48:13;;;;;;;;;52.00;42.50;;;;;13.66;36.78;101870.09;6191042;23;45489;-84
2022/03/25 03:50:38;;;;;;;;;46.50;37.75;;;;;13.73;36.69;101879.13;6215556;22;47190;-84
2022/03/25 03:53:43;;;;;;;;;52.25;42.25;;;;;13.96;36.21;101887.59;6192240;23;45514;-83
2022/03/25 03:56:09;;;;;;;;;52.50;42.75;;;;;13.53;36.92;101852.94;6190632;23;45490;-83
2022/03/25 03:58:34;;;;;;;;;53.25;42.50;;;;;13.58;36.80;101869.94;6191240;23;45227;-84
2022/03/25 04:01:00;;;;;;;;;56.25;45.00;;;;;13.52;36.74;101863.56;6189629;23;47826;-83
2022/03/25 04:03:25;;;;;;;;;43.75;35.75;;;;;13.74;36.90;101897.88;6194106;23;45367;-83
2022/03/25 04:05:51;;;;;;;;;60.00;46.25;;;;;13.59;36.81;101871.75;6193592;23;45208;-82
2022/03/25 04:08:16;;;;;;;;;53.50;45.00;;;;;13.35;36.98;101840.09;6192080;23;45126;-83
2022/03/25 04:10:42;;;;;;;;;61.50;46.00;;;;;13.33;37.04;101841.84;6190974;23;46876;-83
2022/03/25 04:13:07;;;;;;;;;57.00;42.75;;;;;13.36;37.01;101857.00;6191537;23;45313;-82
2022/03/25 04:15:34;;;;;;;;;50.75;41.00;;;;;13.35;37.27;101849.84;6191797;23;44879;-83
2022/03/25 04:18:00;;;;;;;;;59.25;44.00;;;;;13.45;37.23;101885.69;6191582;23;45478;-83
2022/03/25 04:20:25;;;;;;;;;54.75;45.50;;;;;13.34;37.01;101873.00;6191783;23;46010;-83
2022/03/25 04:22:51;;;;;;;;;55.75;46.25;;;;;13.37;36.79;101859.72;6197583;22;45445;-83
2022/03/25 04:25:16;;;;;;;;;55.50;45.50;;;;;13.42;37.35;101882.97;6221881;22;45330;-82
2022/03/25 04:27:50;;;;;;;;;57.75;45.00;;;;;13.62;37.08;101891.41;6222070;22;45342;-83
2022/03/25 04:30:21;;;;;;;;;54.00;43.00;;;;;13.34;37.27;101850.75;6223387;22;45594;-83
2022/03/25 04:32:47;;;;;;;;;48.50;40.50;;;;;13.26;37.43;101874.59;6222856;22;45597;-83
2022/03/25 04:35:13;;;;;;;;;56.75;46.00;;;;;13.29;37.59;101872.03;6221960;22;45253;-83
2022/03/25 04:37:39;;;;;;;;;54.25;43.75;;;;;13.18;37.39;101862.84;6222005;22;45310;-82
2022/03/25 04:40:05;;;;;;;;;55.75;46.00;;;;;13.33;37.53;101889.94;6245596;22;46502;-82
2022/03/25 04:42:30;;;;;;;;;58.75;48.00;;;;;13.20;37.26;101877.13;6222803;22;45392;-82
2022/03/25 04:44:56;;;;;;;;;59.75;48.75;;;;;13.17;37.33;101869.06;6220360;22;45327;-83
2022/03/25 04:47:21;;;;;;;;;47.25;40.00;;;;;13.31;37.49;101896.09;6220417;22;45486;-82
2022/03/25 04:49:49;;;;;;;;;55.00;45.00;;;;;13.33;37.45;101897.00;6219770;22;47903;-83
2022/03/25 04:52:15;;;;;;;;;55.50;42.75;;;;;13.07;37.31;101861.69;6224035;22;45464;-83
2022/03/25 04:54:40;;;;;;;;;51.25;41.25;;;;;13.17;37.58;101882.41;6226801;22;45066;-83
2022/03/25 04:57:06;;;;;;;;;51.00;41.75;;;;;13.29;37.77;101914.78;6224364;22;45439;-83
2022/03/25 04:59:31;;;;;;;;;51.25;42.50;;;;;13.09;38.12;101881.31;6226842;22;46006;-82
2022/03/25 05:01:57;;;;;;;;;56.25;44.25;;;;;13.20;38.30;101914.53;6223858;22;45844;-82
2022/03/25 05:04:22;;;;;;;;;53.75;41.50;;;;;12.96;38.34;101883.72;6223355;22;45328;-82
2022/03/25 05:06:48;;;;;;;;;54.50;45.25;;;;;13.01;38.26;101908.78;6224823;22;45374;-83
2022/03/25 05:09:19;;;;;;;;;56.75;44.00;;;;;12.93;38.54;101907.69;6224329;22;45490;-83
2022/03/25 05:11:45;;;;;;;;;56.00;45.00;;;;;12.85;38.53;101890.59;6221251;22;45731;-83
2022/03/25 05:14:10;;;;;;;;;61.25;45.00;;;;;13.05;38.65;101935.53;6223725;22;45480;-83
2022/03/25 05:16:37;;;;;;;;;54.25;43.75;;;;;12.95;38.65;101913.97;6222321;22;45309;-83
2022/03/25 05:19:03;;;;;;;;;59.00;45.50;;;;;12.86;38.74;101897.72;6224515;22;46399;-83
2022/03/25 05:21:29;;;;;;;;;59.25;45.25;;;;;13.04;38.84;101931.06;6221431;22;45634;-83
2022/03/25 05:23:54;;;;;;;;;55.25;45.25;;;;;12.80;39.18;101889.56;6205292;22;45073;-82
2022/03/25 05:26:26;;;;;;;;;58.75;45.25;;;;;12.98;38.91;101932.72;6167974;23;45384;-83
2022/03/25 05:28:51;;;;;;;;;58.00;45.75;;;;;12.90;39.33;101936.97;6193993;23;46136;-82
2022/03/25 05:31:16;;;;;;;;;60.25;45.75;;;;;12.70;39.30;101906.25;6193702;23;45655;-83
2022/03/25 05:33:42;;;;;;;;;55.75;45.00;;;;;12.60;38.99;101892.69;6166902;23;45353;-83
2022/03/25 05:36:08;;;;;;;;;61.00;45.00;;;;;12.67;39.26;101898.19;6166448;23;45308;-82
2022/03/25 05:38:34;;;;;;;;;56.25;47.75;;;;;12.85;39.06;101932.44;6166604;23;46853;-81
2022/03/25 05:40:59;;;;;;;;;55.00;45.00;;;;;12.68;39.37;101902.63;6193385;23;45382;-84
2022/03/25 05:43:25;;;;;;;;;56.75;45.75;;;;;12.64;39.18;101896.31;6193942;23;45308;-84
2022/03/25 05:45:50;;;;;;;;;61.75;49.25;;;;;12.76;39.70;101923.31;6194087;22;45320;-83
2022/03/25 05:48:16;;;;;;;;;61.75;47.00;;;;;12.59;39.35;101909.56;6165764;23;46470;-84
2022/03/25 05:50:42;;;;;;;;;54.75;44.75;;;;;12.61;40.03;101905.16;6166745;23;45399;-84
2022/03/25 05:53:07;;;;;;;;;62.75;46.50;;;;;12.65;39.40;101907.91;6191439;23;45423;-84
2022/03/25 05:55:33;;;;;;;;;62.50;45.75;;;;;12.57;39.45;101895.28;6167155;23;45728;-83
2022/03/25 05:58:01;;;;;;;;;53.50;44.50;;;;;12.76;39.47;101927.75;6193957;23;45379;-84
2022/03/25 06:00:27;;;;;;;;;54.00;46.50;;;;;12.57;39.77;101899.72;6193541;23;45322;-84
2022/03/25 06:02:53;;;;;;;;;62.25;49.25;;;;;12.76;39.76;101936.66;6165915;23;45260;-83
2022/03/25 06:05:19;;;;;;;;;60.75;47.75;;;;;12.60;40.00;101922.06;6193879;23;45390;-84
2022/03/25 06:07:47;;;;;;;;;56.75;45.00;;;;;12.56;39.96;101914.84;6166443;23;46584;-84
2022/03/25 06:10:16;;;;;;;;;55.25;45.25;;;;;12.81;40.37;101929.66;6168170;23;45871;-83
2022/03/25 06:12:41;;;;;;;;;54.50;46.00;;;;;12.79;39.98;101941.19;6195059;23;45270;-84
2022/03/25 06:15:08;;;;;;;;;58.00;46.50;;;;;12.80;39.87;101927.88;6168442;23;45413;-84
2022/03/25 06:17:47;;;;;;;;;57.50;48.00;;;;;12.86;40.06;101929.78;6195387;23;45292;-83
2022/03/25 06:20:14;;;;;;;;;57.50;44.50;;;;;12.83;40.11;101944.84;6194561;23;45502;-82
2022/03/25 06:22:42;;;;;;;;;60.75;47.75;;;;;12.88;40.04;101938.72;6166760;22;45384;-82
2022/03/25 06:25:08;;;;;;;;;59.00;45.25;;;;;13.00;40.24;101957.69;6190963;23;45718;-83
2022/03/25 06:27:34;;;;;;;;;57.50;45.00;;;;;13.05;40.20;101967.56;6190966;23;45378;-82
2022/03/25 06:29:59;;;;;;;;;58.00;46.25;;;;;12.86;40.42;101942.22;6191242;23;45629;-83
2022/03/25 06:32:25;;;;;;;;;62.00;49.00;;;;;13.06;40.56;101972.06;6192064;23;45298;-83
2022/03/25 06:35:51;;;;;;;;;59.25;45.50;;;;;13.37;40.18;101974.63;6167379;23;45285;-84
2022/03/25 06:38:18;;;;;;;;;54.25;41.75;;;;;13.27;40.25;101975.25;6198179;22;45443;-84
2022/03/25 06:40:44;;;;;;;;;56.50;46.00;;;;;13.24;39.88;101961.81;6169889;23;45571;-84
2022/03/25 06:43:09;;;;;;;;;58.25;46.50;;;;;13.39;40.30;101986.25;6171561;23;45348;-83
2022/03/25 06:45:35;;;;;;;;;61.00;49.75;;;;;13.24;40.02;101937.75;6198753;23;45503;-83
2022/03/25 06:48:01;;;;;;;;;58.75;46.75;;;;;13.56;39.45;101972.34;6170640;23;47795;-83
2022/03/25 06:50:26;;;;;;;;;53.75;43.75;;;;;13.31;39.51;101929.06;6193962;23;45304;-82
2022/03/25 06:52:53;;;;;;;;;59.00;48.50;;;;;13.61;39.57;101973.34;6167221;23;45804;-83
2022/03/25 06:55:20;;;;;;;;;59.25;47.00;;;;;13.72;39.50;101993.19;6166494;23;45391;-84
2022/03/25 06:57:46;;;;;;;;;54.25;44.75;;;;;13.71;38.91;101988.69;6193843;23;46481;-83
2022/03/25 07:00:12;;;;;;;;;64.25;46.25;;;;;13.48;39.51;101947.22;6166881;23;45487;-83
2022/03/25 07:02:43;;;;;;;;;58.50;47.25;;;;;13.70;39.51;101949.47;6166334;23;45539;-83
2022/03/25 07:05:13;;;;;;;;;57.75;45.25;;;;;13.94;39.34;101982.94;6166854;23;45704;-83
2022/03/25 07:07:40;;;;;;;;;61.75;48.50;;;;;13.74;39.67;101945.09;6166329;23;47901;-83
2022/03/25 07:10:10;;;;;;;;;60.75;47.75;;;;;13.91;39.31;101942.75;6166609;23;45770;-82
2022/03/25 07:12:45;;;;;;;;;55.50;45.50;;;;;14.13;38.99;101971.72;6167556;23;45341;-83
2022/03/25 07:15:12;;;;;;;;;58.50;46.00;;;;;13.87;39.23;101948.91;6191703;23;45501;-84
2022/03/25 07:17:38;;;;;;;;;61.50;47.75;;;;;14.19;39.70;101987.88;6166828;23;47098;-84
2022/03/25 07:20:07;;;;;;;;;65.00;48.00;;;;;14.42;39.15;101990.09;6167876;23;45354;-84
2022/03/25 07:22:34;;;;;;;;;63.50;51.50;;;;;14.32;38.98;101996.16;6188199;23;45423;-85
2022/03/25 07:25:01;;;;;;;;;60.75;47.75;;;;;14.34;38.70;101989.97;6218342;22;45244;-85
2022/03/25 07:27:26;;;;;;;;;63.50;50.00;;;;;14.33;38.88;101992.59;6220220;22;45527;-86
2022/03/25 07:29:52;;;;;;;;;64.75;50.75;;;;;14.47;38.84;101998.22;6202554;22;44796;-86
2022/03/25 07:32:18;;;;;;;;;60.75;46.00;;;;;14.55;38.79;101997.47;6178063;22;44809;-86
2022/03/25 07:34:44;;;;;;;;;67.50;52.00;;;;;14.65;38.68;101997.69;6202733;22;45692;-85
2022/03/25 07:37:10;;;;;;;;;67.25;52.00;;;;;14.64;38.83;101995.88;6203948;22;46118;-86
2022/03/25 07:39:35;;;;;;;;;68.50;53.50;;;;;14.77;38.85;102016.63;6202994;22;45855;-85
2022/03/25 07:42:01;;;;;;;;;63.75;51.00;;;;;14.86;38.94;102003.38;6224862;22;45421;-85
2022/03/25 07:44:27;;;;;;;;;64.00;47.75;;;;;15.12;38.45;102011.84;6224221;22;44739;-86
2022/03/25 07:46:53;;;;;;;;;64.00;51.00;;;;;15.03;38.38;102016.16;6200886;22;46741;-86
2022/03/25 07:49:18;;;;;;;;;61.75;49.75;;;;;15.03;37.38;102013.47;6226395;22;45251;-86
2022/03/25 07:51:44;;;;;;;;;59.75;49.00;;;;;15.05;37.08;102018.00;6202149;22;45335;-84
2022/03/25 07:54:12;;;;;;;;;56.50;45.00;;;;;15.22;36.84;102017.34;6203350;22;44837;-85
2022/03/25 07:56:39;;;;;;;;;58.50;45.25;;;;;15.18;36.27;102014.63;6202304;22;46775;-86
2022/03/25 07:59:05;;;;;;;;;65.50;51.00;;;;;15.10;36.47;102010.91;6201062;22;45404;-85
2022/03/25 08:01:31;;;;;;;;;63.75;50.00;;;;;15.02;36.01;102025.09;6202827;22;44726;-84
2022/03/25 08:03:57;;;;;;;;;63.00;49.00;;;;;14.93;35.99;102007.09;6204255;22;45351;-84
2022/03/25 08:06:25;;;;;;;;;65.75;52.00;;;;;15.00;36.39;101976.81;6202369;22;48151;-85
2022/03/25 08:08:51;;;;;;;;;67.25;50.25;;;;;15.11;35.97;102012.75;6201422;22;45280;-84
2022/03/25 08:11:20;;;;;;;;;63.00;48.00;;;;;15.20;35.76;102009.28;6201780;22;45629;-85
2022/03/25 08:13:47;;;;;;;;;67.75;50.00;;;;;15.18;35.57;101989.59;6204004;22;45489;-85
2022/03/25 08:16:14;;;;;;;;;61.00;47.25;;;;;15.22;35.67;101974.47;6233378;22;45358;-85
2022/03/25 08:21:38;;;;;;;;;62.75;51.00;;;;;15.90;35.13;102027.28;6205634;22;46174;-86
2022/03/25 08:30:00;;;;;;;;;61.00;47.50;;;;;16.00;34.83;102026.53;6293651;22;45408;-86
2022/03/25 08:35:48;;;;;;;;;64.00;50.00;;;;;15.83;34.41;101991.41;6291187;22;45353;-86
2022/03/25 08:39:06;;;;;;;;;60.50;48.75;;;;;16.23;34.18;102031.25;6262947;22;45331;-86
2022/03/25 08:41:35;;;;;;;;;60.00;46.75;;;;;15.91;34.04;101991.53;6227433;22;45394;-86
2022/03/25 08:44:01;;;;;;;;;61.75;48.50;;;;;15.87;33.33;101987.00;6201135;22;45388;-85
2022/03/25 08:47:03;;;;;;;;;60.25;49.75;;;;;16.27;33.83;102025.94;6206031;22;45422;-85
2022/03/25 08:49:33;;;;;;;;;65.00;50.75;;;;;16.26;34.27;102016.09;6203111;22;47100;-86
2022/03/25 08:52:25;;;;;;;;;;;;;;;;;;;;;
2022/03/25 08:55:02;;;;;;;;;65.00;50.50;;;;;16.61;33.51;102026.28;6225585;22;68048;-87
2022/03/25 08:57:27;;;;;;;;;64.00;50.50;;;;;16.45;33.38;102013.59;6242520;22;44923;-85
2022/03/25 08:59:56;;;;;;;;;64.00;52.50;;;;;16.65;33.31;102032.59;6261912;22;46790;-86
2022/03/25 09:02:23;;;;;;;;;55.00;46.25;;;;;16.48;32.89;102030.66;6261269;22;45234;-87
2022/03/25 09:04:51;;;;;;;;;61.75;48.75;;;;;16.23;32.74;101988.31;6263899;22;45333;-86
2022/03/25 09:10:33;;;;;;;;;62.00;47.75;;;;;16.77;33.09;102035.41;6273788;22;45283;-87
2022/03/25 09:12:59;;;;;;;;;61.50;50.00;;;;;16.48;32.64;102003.81;6260280;22;45460;-87
2022/03/25 09:15:25;;;;;;;;;64.00;50.00;;;;;16.66;32.48;102020.97;6289660;22;44831;-87
2022/03/25 09:17:51;;;;;;;;;61.50;49.75;;;;;16.56;32.61;101985.03;6260317;22;45548;-85
2022/03/25 09:20:28;;;;;;;;;60.50;48.50;;;;;17.02;32.69;102028.47;6273825;22;47835;-86
2022/03/25 09:23:08;;;;;;;;;68.75;52.00;;;;;17.02;32.17;102003.38;6292489;22;44689;-86
2022/03/25 09:25:41;;;;;;;;;65.00;51.50;;;;;17.22;32.25;102030.44;6321999;22;44830;-85
2022/03/25 09:28:10;;;;;;;;;61.75;48.50;;;;;17.26;32.52;102024.19;6299368;22;44857;-85
2022/03/25 09:30:42;;;;;;;;;67.75;52.25;;;;;17.29;32.55;102017.03;6297243;22;45301;-86
2022/03/25 09:33:14;;;;;;;;;63.75;51.00;;;;;17.48;32.36;102020.72;6327482;22;45314;-85
2022/03/25 09:38:59;;;;;;;;;63.25;47.75;;;;;17.43;32.20;101984.88;6293553;22;44928;-85
2022/03/25 09:41:43;;;;;;;;;60.50;48.25;;;;;17.70;31.79;102018.19;6324939;22;46242;-86
2022/03/25 09:44:30;;;;;;;;;64.00;51.25;;;;;17.72;31.08;102000.25;6299182;22;44815;-86
2022/03/25 09:47:10;;;;;;;;;64.25;53.00;;;;;17.88;31.16;102023.66;6325208;22;45332;-84
2022/03/25 09:49:51;;;;;;;;;63.00;50.00;;;;;17.84;30.63;102020.97;6324149;22;45368;-84
2022/03/25 09:52:18;;;;;;;;;67.00;49.50;;;;;17.88;31.25;102017.41;6272244;22;45365;-85
2022/03/25 09:54:47;;;;;;;;;62.00;50.00;;;;;17.91;30.59;102022.78;6299155;22;44808;-85
2022/03/25 09:57:16;;;;;;;;;63.75;50.75;;;;;18.03;30.53;102022.81;6296622;22;45326;-84
2022/03/25 09:59:41;;;;;;;;;60.50;46.75;;;;;18.04;30.32;102023.72;6297644;22;45432;-85
2022/03/25 10:02:16;;;;;;;;;58.75;45.00;;;;;18.03;30.85;101978.84;6296147;22;46918;-85
2022/03/25 10:05:12;;;;;;;;;70.50;51.00;;;;;18.34;30.85;102012.13;6294738;22;45328;-86
2022/03/25 10:08:00;;;;;;;;;70.50;54.25;;;;;18.40;30.15;101996.03;6325826;22;44754;-84
2022/03/25 10:10:31;;;;;;;;;71.00;55.25;;;;;18.30;29.84;101969.94;6285083;22;45420;-87
2022/03/25 10:13:03;;;;;;;;;69.50;54.75;;;;;18.46;30.01;101989.72;6298557;22;45158;-85
2022/03/25 10:15:32;;;;;;;;;60.00;46.25;;;;;18.52;29.85;102001.44;6270800;22;45364;-84
2022/03/25 10:18:08;;;;;;;;;73.25;53.25;;;;;18.41;29.61;101954.69;6294852;22;45494;-86
2022/03/25 10:20:45;;;;;;;;;66.75;51.00;;;;;18.32;29.94;101960.06;6320810;22;45412;-82
2022/03/25 10:24:00;;;;;;;;;66.00;53.00;;;;;18.82;30.23;101996.97;6291160;22;46619;-87
2022/03/25 10:26:46;;;;;;;;;63.25;49.00;;;;;18.93;29.29;101996.97;6264557;22;45418;-84
2022/03/25 10:29:24;;;;;;;;;65.75;52.50;;;;;19.10;29.54;102015.81;6260839;22;45373;-86
2022/03/25 10:32:58;;;;;;;;;;;;;;;;;;;;;
2022/03/25 10:35:28;;;;;;;;;71.00;55.00;;;;;19.06;29.24;102000.56;6162730;23;74500;-83
2022/03/25 11:00:56;;;;;;;;;65.00;51.75;;;;;19.43;27.66;101965.41;6253624;22;45418;-83
2022/03/25 11:03:29;;;;;;;;;67.50;51.75;;;;;19.52;27.92;101973.50;6229797;22;45353;-84
2022/03/25 11:05:55;;;;;;;;;65.25;49.00;;;;;19.37;27.56;101956.44;6232742;22;45462;-85
2022/03/25 11:08:21;;;;;;;;;65.50;51.00;;;;;19.59;26.95;101983.34;6204089;22;47055;-85
2022/03/25 11:14:08;;;;;;;;;69.25;53.25;;;;;19.53;27.08;101945.59;6223780;22;45421;-86
2022/03/25 11:16:42;;;;;;;;;72.25;54.00;;;;;19.62;27.62;101948.25;6224157;22;45475;-85
2022/03/25 11:26:03;;;;;;;;;65.00;49.00;;;;;19.89;26.90;101938.25;6256276;22;45484;-84
2022/03/25 11:28:32;;;;;;;;;65.25;51.00;;;;;19.78;27.38;101935.63;6230431;22;45237;-86
2022/03/25 11:31:00;;;;;;;;;66.25;50.00;;;;;20.01;27.15;101961.59;6232037;22;46709;-85
2022/03/25 11:33:26;;;;;;;;;70.75;53.25;;;;;19.73;27.12;101924.88;6231799;22;45301;-87
2022/03/25 11:36:18;;;;;;;;;70.50;54.75;;;;;20.18;26.74;101968.72;6258809;22;44820;-86
2022/03/25 11:39:35;;;;;;;;;;;;;;;;;;;;;
2022/03/25 11:42:03;;;;;;;;;69.00;53.75;;;;;20.09;27.17;101944.44;6259370;22;74497;-85
2022/03/25 11:45:04;;;;;;;;;65.75;51.50;;;;;20.29;26.42;101960.53;6226625;22;45419;-86
2022/03/25 11:54:43;;;;;;;;;58.50;46.75;;;;;20.43;25.96;101936.09;6255101;22;45314;-84
2022/03/25 11:57:30;;;;;;;;;66.75;51.50;;;;;20.40;26.30;101922.63;6254442;22;44819;-88
2022/03/25 12:07:40;;;;;;;;;59.00;47.00;;;;;20.48;25.75;101938.75;6253283;22;45395;-85
2022/03/25 12:10:25;;;;;;;;;55.75;47.25;;;;;20.40;26.36;101941.56;6254061;22;45575;-84
2022/03/25 12:12:55;;;;;;;;;53.00;44.75;;;;;20.36;25.67;101915.47;6251931;22;45440;-82
2022/03/25 12:18:46;;;;;;;;;64.75;51.75;;;;;20.68;25.78;101936.84;6253079;22;45466;-84
2022/03/25 12:21:24;;;;;;;;;59.75;48.00;;;;;20.46;26.10;101908.16;6251030;22;45717;-82
2022/03/25 12:23:58;;;;;;;;;62.75;49.25;;;;;20.58;24.70;101921.56;6254929;22;45495;-83
2022/03/25 12:26:35;;;;;;;;;65.00;49.50;;;;;20.72;24.92;101933.22;6254427;22;45754;-82
2022/03/25 12:29:01;;;;;;;;;67.25;50.00;;;;;20.54;25.47;101923.41;6254528;22;46770;-82
2022/03/25 12:31:29;;;;;;;;;40.50;32.00;;;;;20.72;25.48;101932.28;6255052;22;45453;-82
2022/03/25 12:34:05;;;;;;;;;62.25;46.25;;;;;20.85;25.20;101925.88;6251545;22;45473;-83
2022/03/25 12:36:43;;;;;;;;;60.50;46.75;;;;;20.91;25.57;101922.22;6252404;22;45322;-83
2022/03/25 12:39:16;;;;;;;;;58.75;46.25;;;;;20.67;24.52;101874.69;6251861;22;46930;-84